createdAt,value
2019-04-30T00:00:06.351Z,100194.25
2019-04-30T00:02:39.942Z,100195.11
2019-04-30T00:05:10.021Z,100190.14
2019-04-30T00:07:38.213Z,100196.66
2019-04-30T00:10:06.107Z,100199.52
2019-04-30T00:12:37.968Z,100196.45
2019-04-30T00:15:03.256Z,100191.80
2019-04-30T00:17:31.029Z,100197.15
2019-04-30T00:20:00.023Z,100192.34
2019-04-30T00:22:33.950Z,100191.93
2019-04-30T00:24:57.321Z,100186.67
2019-04-30T00:27:26.373Z,100191.34
2019-04-30T00:29:55.796Z,100190.23
2019-04-30T00:32:23.652Z,100185.36
2019-04-30T00:34:51.298Z,100185.42
2019-04-30T00:37:19.053Z,100183.14
2019-04-30T00:39:50.841Z,100180.97
2019-04-30T00:42:18.632Z,100181.03
2019-04-30T00:44:45.744Z,100180.82
2019-04-30T00:47:15.086Z,100172.58
2019-04-30T00:49:42.787Z,100181.66
2019-04-30T00:52:10.452Z,100181.68
2019-04-30T00:54:38.192Z,100178.91
2019-04-30T00:57:07.644Z,100184.44
2019-04-30T00:59:35.222Z,100187.66
2019-04-30T01:02:12.599Z,100188.58
2019-04-30T01:04:44.975Z,100189.72
2019-04-30T01:07:15.427Z,100189.12
2019-04-30T01:09:46.515Z,100187.03
2019-04-30T01:12:12.284Z,100185.23
2019-04-30T01:14:40.003Z,100193.98
2019-04-30T01:17:08.778Z,100187.55
2019-04-30T01:22:02.976Z,100186.72
2019-04-30T01:24:31.579Z,100184.66
2019-04-30T01:27:06.194Z,100184.98
2019-04-30T01:29:31.131Z,100184.98
2019-04-30T01:31:58.631Z,100184.19
2019-04-30T01:34:26.475Z,100181.21
2019-04-30T01:36:54.180Z,100187.50
2019-04-30T01:39:23.661Z,100193.94
2019-04-30T01:41:51.171Z,100186.42
2019-04-30T01:44:19.507Z,100188.39
2019-04-30T01:46:48.212Z,100190.89
2019-04-30T01:49:20.045Z,100194.74
2019-04-30T01:51:46.056Z,100194.53
2019-04-30T01:54:17.942Z,100194.47
2019-04-30T01:56:53.503Z,100189.84
2019-04-30T01:59:24.743Z,100189.36
2019-04-30T02:01:52.658Z,100190.38
2019-04-30T02:04:20.310Z,100184.37
2019-04-30T02:06:49.306Z,100186.48
2019-04-30T02:09:18.882Z,100183.24
2019-04-30T02:11:48.690Z,100183.05
2019-04-30T02:14:15.984Z,100186.31
2019-04-30T02:16:43.754Z,100190.13
2019-04-30T02:19:11.391Z,100190.03
2019-04-30T02:21:39.031Z,100195.78
2019-04-30T02:24:06.679Z,100196.02
2019-04-30T02:26:34.339Z,100195.05
2019-04-30T02:29:01.985Z,100190.98
2019-04-30T02:31:30.927Z,100204.25
2019-04-30T02:34:10.238Z,100204.24
2019-04-30T02:36:49.959Z,100206.37
2019-04-30T02:39:20.170Z,100207.95
2019-04-30T02:41:50.445Z,100213.70
2019-04-30T02:44:19.383Z,100211.31
2019-04-30T02:46:46.104Z,100215.89
2019-04-30T02:49:13.753Z,100218.26
2019-04-30T02:51:41.485Z,100222.27
2019-04-30T02:54:09.757Z,100227.34
2019-04-30T02:56:40.059Z,100222.27
2019-04-30T02:59:07.184Z,100225.48
2019-04-30T03:01:34.846Z,100233.19
2019-04-30T03:04:02.588Z,100234.07
2019-04-30T03:06:30.641Z,100235.75
2019-04-30T03:09:00.994Z,100232.52
2019-04-30T03:11:30.127Z,100230.60
2019-04-30T03:13:59.302Z,100239.34
2019-04-30T03:16:33.083Z,100231.91
2019-04-30T03:19:12.778Z,100237.11
2019-04-30T03:21:46.909Z,100226.55
2019-04-30T03:24:14.562Z,100232.79
2019-04-30T03:26:42.215Z,100231.44
2019-04-30T03:29:11.344Z,100236.08
2019-04-30T03:31:44.321Z,100231.20
2019-04-30T03:34:16.683Z,100231.45
2019-04-30T03:36:40.256Z,100230.67
2019-04-30T03:39:10.368Z,100228.77
2019-04-30T03:41:36.796Z,100229.62
2019-04-30T03:44:17.491Z,100225.72
2019-04-30T03:46:33.861Z,100229.43
2019-04-30T03:49:01.572Z,100229.73
2019-04-30T03:51:30.265Z,100222.63
2019-04-30T03:53:59.519Z,100233.91
2019-04-30T03:56:29.910Z,100228.44
2019-04-30T03:58:56.734Z,100235.34
2019-04-30T04:01:33.603Z,100237.74
2019-04-30T04:04:16.838Z,100238.69
2019-04-30T04:06:49.246Z,100239.95
2019-04-30T04:09:22.421Z,100238.19
2019-04-30T04:11:50.992Z,100239.32
2019-04-30T04:14:19.825Z,100237.25
2019-04-30T04:16:50.417Z,100241.74
2019-04-30T04:19:19.484Z,100243.18
2019-04-30T04:21:46.363Z,100244.45
2019-04-30T04:24:14.008Z,100247.66
2019-04-30T04:26:43.821Z,100256.22
2019-04-30T04:29:12.460Z,100260.80
2019-04-30T04:31:40.451Z,100255.97
2019-04-30T04:34:09.329Z,100260.05
2019-04-30T04:36:39.967Z,100256.30
2019-04-30T04:39:06.493Z,100261.05
2019-04-30T04:41:34.156Z,100261.52
2019-04-30T04:44:01.853Z,100263.83
2019-04-30T04:46:30.777Z,100268.59
2019-04-30T04:48:59.630Z,100268.72
2019-04-30T04:51:37.687Z,100269.38
2019-04-30T04:53:56.814Z,100267.91
2019-04-30T04:56:24.551Z,100273.95
2019-04-30T04:58:52.190Z,100274.58
2019-04-30T05:01:20.562Z,100284.05
2019-04-30T05:03:49.008Z,100284.39
2019-04-30T05:06:16.909Z,100280.90
2019-04-30T05:08:44.598Z,100284.45
2019-04-30T05:11:12.356Z,100285.07
2019-04-30T05:13:40.000Z,100288.00
2019-04-30T05:16:09.169Z,100296.79
2019-04-30T05:18:38.965Z,100297.55
2019-04-30T05:21:06.439Z,100295.72
2019-04-30T05:23:34.089Z,100293.69
2019-04-30T05:26:01.747Z,100295.73
2019-04-30T05:28:30.119Z,100300.20
2019-04-30T05:30:59.364Z,100303.44
2019-04-30T05:33:28.621Z,100303.25
2019-04-30T05:35:56.841Z,100305.81
2019-04-30T05:38:24.484Z,100312.39
2019-04-30T05:40:52.124Z,100307.80
2019-04-30T05:43:19.767Z,100304.58
2019-04-30T05:45:49.216Z,100297.95
2019-04-30T05:48:18.450Z,100310.47
2019-04-30T05:50:46.384Z,100308.30
2019-04-30T05:53:14.074Z,100305.23
2019-04-30T05:55:41.748Z,100302.09
2019-04-30T05:58:09.546Z,100309.02
2019-04-30T06:00:37.323Z,100304.81
2019-04-30T06:03:04.968Z,100303.38
2019-04-30T06:05:32.636Z,100310.59
2019-04-30T06:08:00.541Z,100304.63
2019-04-30T06:10:35.549Z,100301.65
2019-04-30T06:13:09.768Z,100299.58
2019-04-30T06:15:43.308Z,100298.30
2019-04-30T06:18:13.925Z,100300.47
2019-04-30T06:20:40.470Z,100312.95
2019-04-30T06:23:09.508Z,100311.76
2019-04-30T06:25:55.827Z,100315.06
2019-04-30T06:28:06.833Z,100309.30
2019-04-30T06:30:34.470Z,100311.77
2019-04-30T06:33:02.118Z,100305.98
2019-04-30T06:35:29.761Z,100308.92
2019-04-30T06:37:58.975Z,100312.72
2019-04-30T06:40:26.871Z,100306.94
2019-04-30T06:42:54.539Z,100304.67
2019-04-30T06:45:22.204Z,100302.77
2019-04-30T06:47:49.879Z,100306.66
2019-04-30T06:50:19.216Z,100310.16
2019-04-30T06:52:56.621Z,100301.05
2019-04-30T06:55:16.235Z,100301.13
2019-04-30T06:57:43.901Z,100305.04
2019-04-30T07:00:11.568Z,100296.94
2019-04-30T07:02:39.386Z,100296.86
2019-04-30T07:05:09.949Z,100298.70
2019-04-30T07:07:41.528Z,100297.59
2019-04-30T07:10:17.016Z,100294.30
2019-04-30T07:12:49.054Z,100297.43
2019-04-30T07:15:16.843Z,100300.77
2019-04-30T07:17:44.499Z,100296.30
2019-04-30T07:20:12.146Z,100304.95
2019-04-30T07:22:49.002Z,100307.58
2019-04-30T07:25:09.602Z,100305.47
2019-04-30T07:27:39.930Z,100305.27
2019-04-30T07:30:06.804Z,100299.88
2019-04-30T07:32:34.456Z,100303.16
2019-04-30T07:35:02.108Z,100300.30
2019-04-30T07:37:29.778Z,100315.52
2019-04-30T07:39:58.924Z,100301.73
2019-04-30T07:42:26.784Z,100306.33
2019-04-30T07:44:54.444Z,100304.77
2019-04-30T07:47:22.080Z,100310.42
2019-04-30T07:49:55.107Z,100313.75
2019-04-30T07:52:21.512Z,100305.91
2019-04-30T07:54:51.572Z,100308.72
2019-04-30T07:57:19.271Z,100305.05
2019-04-30T07:59:47.147Z,100300.34
2019-04-30T08:02:14.992Z,100303.11
2019-04-30T08:04:51.368Z,100309.91
2019-04-30T08:07:19.983Z,100301.94
2019-04-30T08:09:49.348Z,100306.39
2019-04-30T08:12:26.108Z,100307.98
2019-04-30T08:14:46.671Z,100313.69
2019-04-30T08:17:14.332Z,100309.15
2019-04-30T08:19:41.992Z,100319.15
2019-04-30T08:22:09.664Z,100321.98
2019-04-30T08:24:39.111Z,100328.24
2019-04-30T08:27:06.866Z,100319.76
2019-04-30T08:29:34.528Z,100321.27
2019-04-30T08:32:02.180Z,100314.59
2019-04-30T08:34:29.864Z,100313.72
2019-04-30T08:36:59.333Z,100314.78
2019-04-30T08:39:26.935Z,100319.37
2019-04-30T08:41:54.576Z,100313.38
2019-04-30T08:44:22.244Z,100322.50
2019-04-30T08:46:49.907Z,100319.52
2019-04-30T08:49:19.250Z,100321.54
2019-04-30T08:51:48.753Z,100326.66
2019-04-30T08:54:16.317Z,100316.84
2019-04-30T08:56:44.036Z,100324.81
2019-04-30T08:59:11.688Z,100321.41
2019-04-30T09:01:39.365Z,100313.28
2019-04-30T09:04:07.733Z,100308.03
2019-04-30T09:06:35.652Z,100315.41
2019-04-30T09:09:11.070Z,100309.81
2019-04-30T09:11:51.646Z,100319.28
2019-04-30T09:14:08.590Z,100311.69
2019-04-30T09:16:36.490Z,100316.77
2019-04-30T09:19:04.176Z,100309.87
2019-04-30T09:21:31.844Z,100315.17
2019-04-30T09:23:59.655Z,100307.94
2019-04-30T09:26:29.051Z,100309.89
2019-04-30T09:28:59.152Z,100314.48
2019-04-30T09:31:26.495Z,100317.38
2019-04-30T09:33:54.135Z,100319.89
2019-04-30T09:38:48.672Z,100317.72
2019-04-30T09:41:16.444Z,100317.03
2019-04-30T09:46:19.118Z,100316.64
2019-04-30T09:48:39.386Z,100312.61
2019-04-30T09:51:07.484Z,100320.62
2019-04-30T09:53:36.492Z,100311.59
2019-04-30T09:56:04.228Z,100309.16
2019-04-30T09:58:31.888Z,100306.52
2019-04-30T10:00:59.545Z,100306.03
2019-04-30T10:03:27.459Z,100298.17
2019-04-30T10:05:55.372Z,100308.39
2019-04-30T10:08:23.381Z,100300.33
2019-04-30T10:11:02.705Z,100301.16
2019-04-30T10:13:30.359Z,100305.05
2019-04-30T10:16:09.753Z,100301.48
2019-04-30T10:18:37.608Z,100302.53
2019-04-30T10:21:05.257Z,100300.84
2019-04-30T10:23:32.933Z,100310.99
2019-04-30T10:26:00.579Z,100293.48
2019-04-30T10:28:28.264Z,100293.36
2019-04-30T10:30:55.980Z,100299.45
2019-04-30T10:33:23.653Z,100291.61
2019-04-30T10:35:51.419Z,100285.28
2019-04-30T10:38:19.540Z,100276.74
2019-04-30T10:40:48.777Z,100287.47
2019-04-30T10:43:16.575Z,100280.84
2019-04-30T10:45:44.228Z,100282.32
2019-04-30T10:48:11.890Z,100268.23
2019-04-30T10:50:40.961Z,100274.33
2019-04-30T10:53:09.259Z,100279.77
2019-04-30T10:55:38.730Z,100278.80
2019-04-30T10:58:06.679Z,100268.26
2019-04-30T11:00:34.341Z,100271.09
2019-04-30T11:03:02.108Z,100263.02
2019-04-30T11:05:29.988Z,100267.05
2019-04-30T11:07:59.396Z,100268.26
2019-04-30T11:10:28.638Z,100266.31
2019-04-30T11:12:56.491Z,100264.91
2019-04-30T11:15:24.152Z,100262.69
2019-04-30T11:17:51.991Z,100260.48
2019-04-30T11:20:22.221Z,100260.58
2019-04-30T11:22:49.366Z,100253.34
2019-04-30T11:25:17.856Z,100253.24
2019-04-30T11:27:47.126Z,100246.03
2019-04-30T11:30:23.275Z,100242.09
2019-04-30T11:32:44.522Z,100244.84
2019-04-30T11:35:12.378Z,100240.47
2019-04-30T11:37:40.060Z,100237.84
2019-04-30T11:40:07.933Z,100231.78
2019-04-30T11:42:35.923Z,100233.37
2019-04-30T11:45:03.578Z,100231.59
2019-04-30T11:47:34.304Z,100234.94
2019-04-30T11:50:02.035Z,100226.19
2019-04-30T11:52:29.695Z,100220.59
2019-04-30T11:54:59.659Z,100235.92
2019-04-30T11:57:29.649Z,100222.73
2019-04-30T11:59:57.419Z,100227.83
2019-04-30T12:02:31.385Z,100224.76
2019-04-30T12:04:59.180Z,100223.33
2019-04-30T12:07:34.585Z,100226.06
2019-04-30T12:10:11.356Z,100224.09
2019-04-30T12:12:39.237Z,100213.42
2019-04-30T12:15:06.949Z,100227.36
2019-04-30T12:17:34.750Z,100225.56
2019-04-30T12:20:02.718Z,100236.30
2019-04-30T12:22:30.363Z,100233.15
2019-04-30T12:25:04.886Z,100226.83
2019-04-30T12:27:28.769Z,100227.56
2019-04-30T12:29:56.567Z,100220.34
2019-04-30T12:32:24.368Z,100225.89
2019-04-30T12:34:52.035Z,100219.55
2019-04-30T12:37:19.705Z,100217.48
2019-04-30T12:39:49.152Z,100213.98
2019-04-30T12:42:18.707Z,100218.84
2019-04-30T12:44:46.269Z,100213.27
2019-04-30T12:47:13.964Z,100215.61
2019-04-30T12:49:54.587Z,100214.39
2019-04-30T12:52:29.470Z,100220.37
2019-04-30T12:55:00.086Z,100204.98
2019-04-30T12:57:35.596Z,100197.45
2019-04-30T13:00:03.541Z,100200.23
2019-04-30T13:02:31.197Z,100206.84
2019-04-30T13:05:00.472Z,100198.20
2019-04-30T13:07:30.385Z,100188.19
2019-04-30T13:10:00.415Z,100183.02
2019-04-30T13:12:27.572Z,100191.73
2019-04-30T13:14:55.572Z,100190.97
2019-04-30T13:17:23.217Z,100190.02
2019-04-30T13:19:50.880Z,100187.36
2019-04-30T13:22:18.950Z,100169.18
2019-04-30T13:24:46.845Z,100172.62
2019-04-30T13:27:14.667Z,100169.08
2019-04-30T13:29:51.146Z,100172.94
2019-04-30T13:32:29.552Z,100171.52
2019-04-30T13:34:52.364Z,100164.73
2019-04-30T13:37:20.128Z,100168.30
2019-04-30T13:39:55.796Z,100154.86
2019-04-30T13:42:29.700Z,100151.40
2019-04-30T13:44:57.361Z,100151.08
2019-04-30T13:47:25.063Z,100145.90
2019-04-30T13:49:52.713Z,100151.09
2019-04-30T13:52:20.377Z,100148.04
2019-04-30T13:54:48.118Z,100142.27
2019-04-30T13:57:15.767Z,100145.33
2019-04-30T13:59:43.516Z,100135.86
2019-04-30T14:02:11.251Z,100124.59
2019-04-30T14:04:47.651Z,100129.35
2019-04-30T14:07:28.178Z,100122.39
2019-04-30T14:09:55.844Z,100127.16
2019-04-30T14:12:25.159Z,100122.81
2019-04-30T14:14:52.808Z,100133.34
2019-04-30T14:17:20.495Z,100129.84
2019-04-30T14:19:48.153Z,100130.71
2019-04-30T14:22:16.004Z,100122.89
2019-04-30T14:24:43.661Z,100127.70
2019-04-30T14:27:11.305Z,100121.57
2019-04-30T14:29:39.548Z,100119.84
2019-04-30T14:32:08.663Z,100128.13
2019-04-30T14:34:36.468Z,100118.98
2019-04-30T14:37:04.129Z,100122.90
2019-04-30T14:39:32.101Z,100107.16
2019-04-30T14:42:00.971Z,100109.75
2019-04-30T14:44:31.836Z,100114.12
2019-04-30T14:47:06.684Z,100111.95
2019-04-30T14:49:59.700Z,100112.36
2019-04-30T14:52:19.656Z,100106.28
2019-04-30T14:54:55.532Z,100115.42
2019-04-30T14:57:42.475Z,100114.16
2019-04-30T15:00:24.569Z,100116.81
2019-04-30T15:02:58.592Z,100105.42
2019-04-30T15:05:38.369Z,100108.06
2019-04-30T15:07:55.760Z,100100.67
2019-04-30T15:10:23.421Z,100107.20
2019-04-30T15:12:51.108Z,100104.59
2019-04-30T15:15:19.247Z,100107.17
2019-04-30T15:17:47.025Z,100102.36
2019-04-30T15:20:14.887Z,100106.73
2019-04-30T15:22:49.182Z,100106.34
2019-04-30T15:25:17.027Z,100103.73
2019-04-30T15:27:49.117Z,100104.58
2019-04-30T15:30:21.809Z,100096.75
2019-04-30T15:32:46.987Z,100096.77
2019-04-30T15:35:14.636Z,100094.58
2019-04-30T15:37:43.956Z,100089.80
2019-04-30T15:40:11.929Z,100089.83
2019-04-30T15:42:42.680Z,100094.16
2019-04-30T15:45:10.344Z,100088.48
2019-04-30T15:47:38.747Z,100091.92
2019-04-30T15:50:06.646Z,100092.31
2019-04-30T15:52:34.519Z,100093.20
2019-04-30T15:55:02.171Z,100092.27
2019-04-30T15:57:29.839Z,100089.20
2019-04-30T15:59:57.603Z,100091.34
2019-04-30T16:02:30.880Z,100095.32
2019-04-30T16:05:17.063Z,100097.48
2019-04-30T16:07:53.985Z,100097.00
2019-04-30T16:10:39.770Z,100089.61
2019-04-30T16:13:12.619Z,100082.27
2019-04-30T16:15:40.268Z,100086.55
2019-04-30T16:18:09.703Z,100089.16
2019-04-30T16:20:39.223Z,100085.64
2019-04-30T16:23:06.848Z,100087.36
2019-04-30T16:25:34.622Z,100084.34
2019-04-30T16:28:02.280Z,100081.72
2019-04-30T16:30:30.220Z,100076.06
2019-04-30T16:32:59.609Z,100077.77
2019-04-30T16:35:29.423Z,100083.89
2019-04-30T16:37:57.094Z,100079.52
2019-04-30T16:40:24.802Z,100079.02
2019-04-30T16:42:52.478Z,100074.69
2019-04-30T16:45:20.133Z,100075.94
2019-04-30T16:47:47.965Z,100064.20
2019-04-30T16:50:15.612Z,100069.48
2019-04-30T16:52:43.429Z,100067.25
2019-04-30T16:55:11.165Z,100065.06
2019-04-30T16:57:39.718Z,100070.31
2019-04-30T17:00:09.405Z,100062.88
2019-04-30T17:02:39.333Z,100064.98
2019-04-30T17:05:15.035Z,100061.48
2019-04-30T17:07:51.695Z,100071.49
2019-04-30T17:10:32.948Z,100057.57
2019-04-30T17:13:10.492Z,100063.61
2019-04-30T17:15:39.242Z,100060.96
2019-04-30T17:18:09.852Z,100066.99
2019-04-30T17:20:36.305Z,100062.95
2019-04-30T17:23:03.960Z,100060.28
2019-04-30T17:25:31.744Z,100062.83
2019-04-30T17:28:01.456Z,100062.77
2019-04-30T17:30:29.347Z,100062.77
2019-04-30T17:32:59.568Z,100061.41
2019-04-30T17:35:26.603Z,100072.28
2019-04-30T17:37:54.263Z,100062.60
2019-04-30T17:40:21.942Z,100057.78
2019-04-30T17:42:49.600Z,100056.36
2019-04-30T17:45:19.343Z,100060.64
2019-04-30T17:47:46.723Z,100061.88
2019-04-30T17:50:15.052Z,100061.45
2019-04-30T17:52:42.752Z,100060.84
2019-04-30T17:55:10.403Z,100060.29
2019-04-30T17:57:40.077Z,100064.19
2019-04-30T18:00:16.904Z,100072.60
2019-04-30T18:02:39.258Z,100066.98
2019-04-30T18:05:07.031Z,100072.00
2019-04-30T18:07:34.867Z,100074.05
2019-04-30T18:10:02.822Z,100072.62
2019-04-30T18:12:30.476Z,100075.97
2019-04-30T18:14:59.973Z,100075.94
2019-04-30T18:17:27.691Z,100072.78
2019-04-30T18:20:01.804Z,100075.30
2019-04-30T18:22:40.142Z,100074.28
2019-04-30T18:25:14.400Z,100082.42
2019-04-30T18:27:49.471Z,100080.48
2019-04-30T18:30:21.222Z,100080.66
2019-04-30T18:32:50.171Z,100081.30
2019-04-30T18:35:20.062Z,100078.16
2019-04-30T18:37:48.572Z,100080.51
2019-04-30T18:40:18.567Z,100079.08
2019-04-30T18:42:45.672Z,100081.08
2019-04-30T18:45:13.338Z,100080.48
2019-04-30T18:47:40.994Z,100082.75
2019-04-30T18:50:09.313Z,100082.80
2019-04-30T18:52:37.576Z,100087.66
2019-04-30T18:55:05.400Z,100093.19
2019-04-30T18:57:33.112Z,100088.54
2019-04-30T19:00:01.564Z,100087.56
2019-04-30T19:02:29.415Z,100091.86
2019-04-30T19:04:57.081Z,100090.98
2019-04-30T19:07:30.228Z,100087.15
2019-04-30T19:10:05.941Z,100091.34
2019-04-30T19:12:48.975Z,100090.10
2019-04-30T19:16:08.907Z,100092.98
2019-04-30T19:18:20.336Z,100089.41
2019-04-30T19:20:50.964Z,100093.41
2019-04-30T19:23:19.052Z,100102.66
2019-04-30T19:25:48.583Z,100099.72
2019-04-30T19:28:16.311Z,100100.83
2019-04-30T19:30:55.099Z,100097.64
2019-04-30T19:33:13.341Z,100101.93
2019-04-30T19:35:40.996Z,100107.64
2019-04-30T19:38:09.183Z,100106.79
2019-04-30T19:40:36.997Z,100099.73
2019-04-30T19:45:30.589Z,100098.22
2019-04-30T19:47:58.650Z,100099.52
2019-04-30T19:50:26.480Z,100101.52
2019-04-30T19:52:54.136Z,100107.70
2019-04-30T19:55:21.792Z,100096.09
2019-04-30T20:00:15.376Z,100099.09
2019-04-30T20:02:43.044Z,100101.33
2019-04-30T20:05:10.692Z,100097.84
2019-04-30T20:07:38.361Z,100100.77
2019-04-30T20:10:06.009Z,100099.77
2019-04-30T20:12:33.678Z,100104.06
2019-04-30T20:15:01.330Z,100106.51
2019-04-30T20:17:29.530Z,100105.69
2019-04-30T20:19:58.908Z,100105.61
2019-04-30T20:22:26.760Z,100106.56
2019-04-30T20:24:54.412Z,100108.73
2019-04-30T20:27:22.084Z,100111.14
2019-04-30T20:29:51.795Z,100107.70
2019-04-30T20:32:20.848Z,100115.75
2019-04-30T20:34:48.911Z,100110.95
2019-04-30T20:37:16.716Z,100111.86
2019-04-30T20:39:50.516Z,100117.73
2019-04-30T20:42:18.176Z,100113.70
2019-04-30T20:44:45.869Z,100105.84
2019-04-30T20:47:13.534Z,100108.78
2019-04-30T20:49:41.175Z,100109.11
2019-04-30T20:52:09.013Z,100102.44
2019-04-30T20:54:36.664Z,100095.98
2019-04-30T20:57:04.312Z,100101.71
2019-04-30T20:59:31.965Z,100099.33
2019-04-30T21:01:59.620Z,100098.22
2019-04-30T21:04:27.272Z,100095.90
2019-04-30T21:06:54.930Z,100100.42
2019-04-30T21:09:22.578Z,100096.78
2019-04-30T21:11:50.232Z,100099.11
2019-04-30T21:14:19.292Z,100098.63
2019-04-30T21:16:47.264Z,100089.48
2019-04-30T21:19:15.072Z,100095.09
2019-04-30T21:21:42.760Z,100091.08
2019-04-30T21:24:10.431Z,100091.33
2019-04-30T21:26:38.167Z,100092.50
2019-04-30T21:29:13.216Z,100087.36
2019-04-30T21:31:40.375Z,100097.93
2019-04-30T21:34:16.703Z,100093.52
2019-04-30T21:36:44.632Z,100097.63
2019-04-30T21:39:12.281Z,100098.52
2019-04-30T21:41:40.226Z,100102.38
2019-04-30T21:44:07.928Z,100096.27
2019-04-30T21:46:37.030Z,100096.47
2019-04-30T21:49:05.201Z,100089.05
2019-04-30T21:51:32.852Z,100092.00
2019-04-30T21:54:00.530Z,100095.89
2019-04-30T21:56:28.188Z,100101.11
2019-04-30T21:58:55.841Z,100101.05
2019-04-30T22:01:25.536Z,100098.02
2019-04-30T22:03:53.192Z,100100.53
2019-04-30T22:06:21.323Z,100093.58
2019-04-30T22:08:48.948Z,100092.61
2019-04-30T22:11:16.595Z,100084.95
2019-04-30T22:13:44.284Z,100087.00
2019-04-30T22:16:11.944Z,100089.17
2019-04-30T22:18:39.595Z,100090.65
2019-04-30T22:21:07.366Z,100094.27
2019-04-30T22:23:35.099Z,100088.39
2019-04-30T22:26:02.787Z,100092.14
2019-04-30T22:28:30.444Z,100095.41
2019-04-30T22:30:58.599Z,100097.41
2019-04-30T22:33:26.445Z,100096.69
2019-04-30T22:36:06.244Z,100098.88
2019-04-30T22:38:39.052Z,100097.23
2019-04-30T22:41:08.861Z,100106.28
2019-04-30T22:43:36.345Z,100104.42
2019-04-30T22:46:09.823Z,100100.45
2019-04-30T22:48:37.590Z,100107.48
2019-04-30T22:51:05.260Z,100098.46
2019-04-30T22:53:32.928Z,100092.55
2019-04-30T22:56:00.581Z,100096.18
2019-04-30T22:58:28.351Z,100097.17
2019-04-30T23:01:04.376Z,100091.06
2019-04-30T23:03:33.459Z,100087.92
2019-04-30T23:06:01.261Z,100089.25
2019-04-30T23:08:28.922Z,100082.36
2019-04-30T23:10:56.575Z,100086.73
2019-04-30T23:13:24.230Z,100078.95
2019-04-30T23:15:51.914Z,100088.86
2019-04-30T23:18:19.564Z,100079.28
2019-04-30T23:20:47.223Z,100084.02
2019-04-30T23:23:14.872Z,100077.64
2019-04-30T23:25:43.022Z,100078.14
2019-04-30T23:28:10.711Z,100080.11
2019-04-30T23:30:38.506Z,100074.23
2019-04-30T23:33:06.226Z,100067.22
2019-04-30T23:35:33.893Z,100067.95
2019-04-30T23:38:01.547Z,100066.42
2019-04-30T23:40:29.200Z,100068.19
2019-04-30T23:42:56.864Z,100059.36
2019-04-30T23:45:24.519Z,100061.16
2019-04-30T23:47:52.187Z,100054.06
2019-04-30T23:50:19.838Z,100055.50
2019-04-30T23:52:47.498Z,100051.47
2019-04-30T23:55:15.195Z,100051.94
2019-04-30T23:57:42.952Z,100055.05
